KMVH

N Bar Ranch Airport

Grassrange, Montana, USA
METAR KMVH 182135Z AUTO 30008KT 10SM CLR 19/12 A3019 RMK AO2
Observed Flight Rules
Aug-18 @ 21:35 UTC (19 minutes ago) Visual Flight Rules
Wind Visibility Clouds
300° at 8 knots 10 miles
  • Clear skies
Temperatures Readings
Current 19°C / 66°F
Dewpoint 12°C / 54°F
Humidity 64%
Altimeter 30.19" Hg
Pressure 1022 hPa
Elevation 1355
METAR KMVH 182135Z AUTO 30008KT 10SM CLR 19/12 A3019 RMK AO2
Observed Flight Rules
Aug-18 @ 21:35 UTC
(19 minutes ago)
VFR
Wind Visibility
300° at 8 knots 10 miles
Clouds
  • Clear skies
Temperature Dewpoint
19°C / 66°F 12°C / 54°F
Humidity Altimeter Pressure
64% 30.19" Hg 1022 hPa